This is the latest recevied weather packets stored in our database for station/object KE7KUS-14. If no packets are shown the sender has not sent any weather packets the latest 10 day(s).
| Time | Temp. | Humidity | Pressure | Rain* | Wind** | Luminosity | Snow |
|---|---|---|---|---|---|---|---|
| 1777488134 | 17.22° C | 16% | 1027.3 hPa | 0 mm | - | 246 W/m² | - |
| 1777476702 | 16.11° C | 16% | 1027.8 hPa | 0 mm | - | 255 W/m² | - |
| 1777470098 | 15° C | 17% | 1028.1 hPa | 0 mm | - | 57 W/m² | - |
| 1777467696 | 9.44° C | 34% | 1027.7 hPa | 0 mm | - | 27 W/m² | - |
| 1777464688 | 9.44° C | 31% | 1027.4 hPa | 0 mm | - | 0 W/m² | - |
| 1777464103 | 9.44° C | 33% | 1027.5 hPa | 0 mm | - | 0 W/m² | - |
| 1777462934 | 8.89° C | 32% | 1027.4 hPa | 0 mm | - | 0 W/m² | - |
| 1777458710 | 9.44° C | 30% | 1027.4 hPa | 0 mm | - | 0 W/m² | - |
| 1777458125 | 9.44° C | 30% | 1027.3 hPa | 0 mm | - | 0 W/m² | - |
| 1777456306 | 9.44° C | 30% | 1027.2 hPa | 0 mm | - | 0 W/m² | - |
| 1777452735 | 10.56° C | 27% | 1027.6 hPa | 0 mm | - | 0 W/m² | - |
| 1777450918 | 11.11° C | 26% | 1027.6 hPa | 0 mm | - | 0 W/m² | - |
| 1777446130 | 11.67° C | 25% | 1028.4 hPa | 0 mm | - | 0 W/m² | - |
| 1777445545 | 11.67° C | 24% | 1028.3 hPa | 0 mm | - | 0 W/m² | - |
| 1777443707 | 11.11° C | 24% | 1028.4 hPa | 0 mm | - | 0 W/m² | - |
| 1777431743 | 16.11° C | 17% | 1028.2 hPa | 0 mm | - | 0 W/m² | - |
| 1777429923 | 17.78° C | 15% | 1027.9 hPa | 0 mm | - | 0 W/m² | - |
| 1777423948 | 18.89° C | 12% | 1027 hPa | 0 mm | - | 59 W/m² | - |
| 1777420331 | 19.44° C | 13% | 1026.7 hPa | 0 mm | - | 153 W/m² | - |
| 1777416154 | 20.56° C | 12% | 1026.5 hPa | 0 mm | - | 441 W/m² | - |
| 1777415591 | 20.56° C | 12% | 1026.4 hPa | 0 mm | - | 513 W/m² | - |
| 1777411348 | 19.44° C | 13% | 1027.1 hPa | 0 mm | - | 610 W/m² | - |
| 1777407774 | 20° C | 13% | 1027.8 hPa | 0 mm | - | 697 W/m² | - |
| 1777406541 | 20° C | 13% | 1027.7 hPa | 0 mm | - | 671 W/m² | - |
| 1777402317 | 18.89° C | 15% | 1028.3 hPa | 0 mm | - | 725 W/m² | - |
* Rain latest hour (hover to see other rain measurements)
** Current wind speed in m/s (hover to see current wind gust speed)